Time;durP1;ratioP1;P1;durP2;ratioP2;P2;SDS_P1;SDS_P2;PMS_P1;PMS_P2;Temp;Humidity;BMP_temperature;BMP_pressure;BME280_temperature;BME280_humidity;BME280_pressure;Samples;Min_cycle;Max_cycle;Signal;HPM_P1;HPM_P2
2022/01/27 00:01:01;;;;;;;10.15;3.63;;;;;;;;;;4969982;28;20494;-67
2022/01/27 00:03:19;;;;;;;7.68;3.10;;;;;;;;;;4969233;28;20074;-66
2022/01/27 00:05:51;;;;;;;8.10;3.63;;;;;;;;;;4960144;28;20034;-65
2022/01/27 00:08:23;;;;;;;11.57;3.50;;;;;;;;;;4960468;28;20030;-65
2022/01/27 00:10:55;;;;;;;6.97;3.37;;;;;;;;;;4970583;28;20021;-65
2022/01/27 00:13:28;;;;;;;8.10;3.30;;;;;;;;;;4970363;28;20276;-65
2022/01/27 00:16:41;;;;;;;7.82;3.25;;;;;;;;;;4970052;28;20034;-66
2022/01/27 00:18:45;;;;;;;7.22;3.42;;;;;;;;;;4966927;28;20046;-65
2022/01/27 00:21:12;;;;;;;7.38;3.22;;;;;;;;;;4970857;28;20039;-65
2022/01/27 00:23:40;;;;;;;7.63;3.60;;;;;;;;;;4970621;28;20019;-66
2022/01/27 00:26:06;;;;;;;4.97;3.00;;;;;;;;;;4970712;28;20078;-67
2022/01/27 00:28:33;;;;;;;8.40;4.00;;;;;;;;;;4970790;28;20018;-66
2022/01/27 00:30:59;;;;;;;7.38;3.78;;;;;;;;;;4959828;28;20039;-66
2022/01/27 00:33:25;;;;;;;7.35;3.50;;;;;;;;;;4970471;28;20030;-66
2022/01/27 00:35:51;;;;;;;9.65;3.50;;;;;;;;;;4961425;28;20077;-67
2022/01/27 00:38:17;;;;;;;9.95;4.30;;;;;;;;;;4970550;28;20081;-66
2022/01/27 00:40:44;;;;;;;10.02;4.38;;;;;;;;;;4961842;28;20127;-66
2022/01/27 00:43:10;;;;;;;8.95;3.67;;;;;;;;;;4970477;28;20026;-66
2022/01/27 00:45:37;;;;;;;10.98;4.32;;;;;;;;;;4969960;28;20039;-66
2022/01/27 00:48:05;;;;;;;8.32;3.70;;;;;;;;;;4971300;28;20264;-66
2022/01/27 00:50:33;;;;;;;7.20;4.13;;;;;;;;;;4970644;28;20035;-66
2022/01/27 00:53:02;;;;;;;9.25;4.30;;;;;;;;;;4970306;28;20360;-66
2022/01/27 00:55:33;;;;;;;8.48;4.13;;;;;;;;;;4962490;28;20082;-66
2022/01/27 00:58:08;;;;;;;10.50;4.40;;;;;;;;;;4973496;28;20015;-66
2022/01/27 01:00:39;;;;;;;7.45;4.32;;;;;;;;;;4973588;28;20039;-65
2022/01/27 01:03:14;;;;;;;9.98;4.85;;;;;;;;;;4972673;28;20085;-66
2022/01/27 01:34:32;;;;;;;12.82;5.03;;;;;;;;;;4973368;28;20034;-66
2022/01/27 01:37:04;;;;;;;8.25;5.00;;;;;;;;;;4974873;28;20019;-66
2022/01/27 01:39:34;;;;;;;10.27;5.23;;;;;;;;;;4975374;28;20023;-66
2022/01/27 01:42:01;;;;;;;10.55;4.97;;;;;;;;;;4975309;28;20030;-66
2022/01/27 01:44:27;;;;;;;7.50;4.75;;;;;;;;;;4975511;28;20030;-65
2022/01/27 01:46:54;;;;;;;7.35;4.70;;;;;;;;;;4975432;28;20529;-65
2022/01/27 01:49:22;;;;;;;8.05;4.68;;;;;;;;;;4958079;28;20070;-66
2022/01/27 01:51:48;;;;;;;12.05;5.47;;;;;;;;;;4975310;28;20058;-66
2022/01/27 01:54:14;;;;;;;11.30;4.65;;;;;;;;;;4974315;28;20094;-66
2022/01/27 01:56:41;;;;;;;10.77;4.80;;;;;;;;;;4969283;28;20027;-65
2022/01/27 01:59:08;;;;;;;9.07;4.93;;;;;;;;;;4955505;28;20467;-66
2022/01/27 02:01:35;;;;;;;8.27;4.90;;;;;;;;;;4955426;28;20043;-65
2022/01/27 02:04:05;;;;;;;14.50;5.32;;;;;;;;;;4956015;29;20082;-65
2022/01/27 02:06:37;;;;;;;9.23;5.18;;;;;;;;;;4955844;28;20034;-66
2022/01/27 02:09:21;;;;;;;7.82;4.47;;;;;;;;;;4955831;28;20467;-66
2022/01/27 02:20:03;;;;;;;10.90;5.00;;;;;;;;;;4974962;28;20058;-66
2022/01/27 02:22:29;;;;;;;8.88;4.88;;;;;;;;;;4974511;28;20390;-66
2022/01/27 02:24:55;;;;;;;8.05;4.68;;;;;;;;;;4974704;28;20027;-66
2022/01/27 02:27:22;;;;;;;10.18;4.93;;;;;;;;;;4957384;28;20030;-66
2022/01/27 02:29:48;;;;;;;9.32;4.65;;;;;;;;;;4956545;28;20608;-66
2022/01/27 02:32:15;;;;;;;9.02;4.72;;;;;;;;;;4956894;28;20117;-65
2022/01/27 02:34:42;;;;;;;10.23;4.80;;;;;;;;;;4974482;28;20026;-65
2022/01/27 02:37:08;;;;;;;9.73;4.55;;;;;;;;;;4974649;28;20027;-65
2022/01/27 02:39:34;;;;;;;8.50;5.15;;;;;;;;;;4974445;28;20047;-66
2022/01/27 02:42:10;;;;;;;6.57;4.20;;;;;;;;;;4974447;28;20034;-66
2022/01/27 02:44:46;;;;;;;10.23;4.60;;;;;;;;;;4954272;28;20550;-66
2022/01/27 02:47:16;;;;;;;9.50;4.18;;;;;;;;;;4974476;28;20111;-66
2022/01/27 02:49:42;;;;;;;8.35;4.32;;;;;;;;;;4974496;28;20039;-66
2022/01/27 02:52:09;;;;;;;10.07;5.18;;;;;;;;;;4956726;28;20398;-65
2022/01/27 02:54:35;;;;;;;10.27;4.45;;;;;;;;;;4956786;28;20534;-66
2022/01/27 02:57:01;;;;;;;15.80;6.28;;;;;;;;;;4974209;28;20022;-66
2022/01/27 02:59:27;;;;;;;15.50;5.93;;;;;;;;;;4970133;28;20078;-66
2022/01/27 03:01:54;;;;;;;14.85;6.38;;;;;;;;;;4966183;28;20042;-66
2022/01/27 03:04:20;;;;;;;9.95;5.40;;;;;;;;;;4974007;28;20023;-66
2022/01/27 03:06:47;;;;;;;20.73;5.55;;;;;;;;;;4974214;28;20109;-66
2022/01/27 03:09:13;;;;;;;13.23;5.53;;;;;;;;;;4974414;28;20050;-66
2022/01/27 03:11:48;;;;;;;11.07;5.88;;;;;;;;;;4973969;28;20031;-66
2022/01/27 03:14:16;;;;;;;25.25;5.90;;;;;;;;;;4973887;28;20844;-65
2022/01/27 03:16:42;;;;;;;19.42;5.75;;;;;;;;;;4973750;28;20537;-65
2022/01/27 03:19:08;;;;;;;13.23;5.60;;;;;;;;;;4967652;28;20039;-66
2022/01/27 03:21:35;;;;;;;11.23;5.50;;;;;;;;;;4973557;28;20043;-65
2022/01/27 03:24:01;;;;;;;11.82;5.38;;;;;;;;;;4973577;28;20466;-66
2022/01/27 03:26:27;;;;;;;9.55;5.18;;;;;;;;;;4973858;28;20054;-65
2022/01/27 03:28:53;;;;;;;15.82;5.30;;;;;;;;;;4979496;28;20034;-65
2022/01/27 03:31:19;;;;;;;9.93;4.82;;;;;;;;;;4983740;28;20542;-66
2022/01/27 03:33:45;;;;;;;8.10;4.82;;;;;;;;;;4984606;28;20101;-66
2022/01/27 03:36:12;;;;;;;10.23;4.35;;;;;;;;;;4977581;28;20030;-65
2022/01/27 03:38:38;;;;;;;8.48;4.07;;;;;;;;;;4979722;28;20058;-66
2022/01/27 03:41:06;;;;;;;7.43;4.78;;;;;;;;;;4980933;28;20836;-65
2022/01/27 03:43:35;;;;;;;9.88;4.45;;;;;;;;;;4982781;28;20029;-65
2022/01/27 03:46:01;;;;;;;9.20;4.25;;;;;;;;;;4984872;28;20027;-66
2022/01/27 03:48:28;;;;;;;5.75;3.60;;;;;;;;;;4981809;28;20030;-66
2022/01/27 03:50:54;;;;;;;9.18;3.33;;;;;;;;;;4961884;28;20074;-66
2022/01/27 03:53:20;;;;;;;8.88;3.70;;;;;;;;;;4982390;28;20488;-66
2022/01/27 03:55:46;;;;;;;7.13;3.63;;;;;;;;;;4984485;28;20099;-66
2022/01/27 03:58:12;;;;;;;7.93;3.83;;;;;;;;;;4983005;28;20109;-66
2022/01/27 04:00:38;;;;;;;8.27;3.63;;;;;;;;;;4962408;28;20043;-66
2022/01/27 04:03:08;;;;;;;7.05;4.00;;;;;;;;;;4973163;28;20026;-66
2022/01/27 04:05:40;;;;;;;8.07;3.83;;;;;;;;;;4973405;28;20106;-66
2022/01/27 04:08:07;;;;;;;7.85;3.63;;;;;;;;;;4952260;28;20478;-66
2022/01/27 04:10:34;;;;;;;7.25;3.72;;;;;;;;;;4970599;28;20066;-66
2022/01/27 04:13:00;;;;;;;5.35;3.33;;;;;;;;;;4973266;28;20031;-65
2022/01/27 04:15:26;;;;;;;6.90;3.63;;;;;;;;;;4973222;28;20482;-66
2022/01/27 04:17:52;;;;;;;7.95;3.88;;;;;;;;;;4973519;28;20059;-66
2022/01/27 04:20:18;;;;;;;14.23;3.88;;;;;;;;;;4973272;28;20043;-66
2022/01/27 04:22:44;;;;;;;10.88;3.97;;;;;;;;;;4973075;28;20058;-66
2022/01/27 04:25:14;;;;;;;7.57;3.45;;;;;;;;;;4967933;28;20053;-66
2022/01/27 04:27:45;;;;;;;6.10;3.35;;;;;;;;;;4973223;28;20359;-66
2022/01/27 04:30:15;;;;;;;7.40;4.15;;;;;;;;;;4975303;28;20360;-67
2022/01/27 04:32:47;;;;;;;8.25;3.70;;;;;;;;;;4976649;28;20042;-66
2022/01/27 04:35:17;;;;;;;6.45;3.65;;;;;;;;;;4977074;28;20363;-74
2022/01/27 04:37:56;;;;;;;8.55;4.07;;;;;;;;;;4977058;28;20027;-64
2022/01/27 04:40:39;;;;;;;8.10;3.17;;;;;;;;;;4958831;28;20073;-64
2022/01/27 04:45:41;;;;;;;7.72;3.97;;;;;;;;;;4964052;28;20459;-65
2022/01/27 04:48:14;;;;;;;9.32;3.75;;;;;;;;;;4991801;28;20027;-64
2022/01/27 04:50:40;;;;;;;8.27;3.67;;;;;;;;;;4991639;28;20026;-65
2022/01/27 04:53:11;;;;;;;10.73;4.32;;;;;;;;;;4986859;28;20429;-65
2022/01/27 04:55:38;;;;;;;6.35;3.35;;;;;;;;;;4986368;28;20097;-65
2022/01/27 04:58:14;;;;;;;9.23;4.05;;;;;;;;;;4968854;28;20088;-65
2022/01/27 05:00:41;;;;;;;9.95;4.10;;;;;;;;;;4980016;28;20038;-65
2022/01/27 05:03:54;;;;;;;9.02;3.60;;;;;;;;;;4961919;28;20046;-64
2022/01/27 05:05:57;;;;;;;7.60;3.78;;;;;;;;;;4970588;28;20046;-65
2022/01/27 05:08:23;;;;;;;8.73;3.65;;;;;;;;;;4958877;28;20402;-65
2022/01/27 05:11:03;;;;;;;8.57;3.97;;;;;;;;;;4985178;28;20081;-65
2022/01/27 05:13:36;;;;;;;6.97;3.72;;;;;;;;;;4987182;28;20034;-65
2022/01/27 05:16:02;;;;;;;13.00;4.47;;;;;;;;;;4975744;28;20039;-65
2022/01/27 05:18:28;;;;;;;9.25;3.95;;;;;;;;;;4975886;28;20025;-65
2022/01/27 05:20:54;;;;;;;9.13;3.53;;;;;;;;;;4976050;28;20038;-65
2022/01/27 05:23:20;;;;;;;7.88;3.90;;;;;;;;;;4975718;28;20023;-64
2022/01/27 05:25:46;;;;;;;12.02;4.45;;;;;;;;;;4976185;28;20027;-64
2022/01/27 05:28:12;;;;;;;11.27;3.65;;;;;;;;;;4975726;28;20030;-64
2022/01/27 05:30:38;;;;;;;9.65;3.97;;;;;;;;;;4968578;28;20035;-65
2022/01/27 05:33:04;;;;;;;8.63;3.65;;;;;;;;;;4975641;28;20189;-65
2022/01/27 05:35:30;;;;;;;8.80;3.72;;;;;;;;;;4975466;28;20384;-65
2022/01/27 05:37:56;;;;;;;12.68;4.20;;;;;;;;;;4975916;28;20027;-65
2022/01/27 05:40:23;;;;;;;10.50;4.00;;;;;;;;;;4975281;28;20041;-65
2022/01/27 05:42:49;;;;;;;10.10;3.33;;;;;;;;;;4975113;28;20026;-65
2022/01/27 05:45:15;;;;;;;12.65;4.10;;;;;;;;;;4975486;28;20035;-64
2022/01/27 05:47:40;;;;;;;8.80;4.00;;;;;;;;;;4974553;28;20031;-65
2022/01/27 05:50:07;;;;;;;9.27;3.63;;;;;;;;;;4975535;28;20105;-66
2022/01/27 05:52:33;;;;;;;12.05;4.20;;;;;;;;;;4975426;28;20022;-65
2022/01/27 05:54:59;;;;;;;12.80;4.70;;;;;;;;;;4975879;28;20023;-65
2022/01/27 05:57:25;;;;;;;8.05;3.97;;;;;;;;;;4975848;28;20088;-64
2022/01/27 05:59:51;;;;;;;7.72;3.70;;;;;;;;;;4974881;28;20034;-64
2022/01/27 06:02:17;;;;;;;8.43;3.60;;;;;;;;;;4975159;28;20035;-65
2022/01/27 06:04:43;;;;;;;8.73;3.40;;;;;;;;;;4974128;28;20027;-65
2022/01/27 06:07:09;;;;;;;8.27;3.17;;;;;;;;;;4975067;28;20042;-64
2022/01/27 06:09:35;;;;;;;11.60;3.80;;;;;;;;;;4975344;28;20034;-64
2022/01/27 06:12:01;;;;;;;8.63;3.92;;;;;;;;;;4974760;28;20030;-65
2022/01/27 06:14:26;;;;;;;7.57;3.45;;;;;;;;;;4975151;28;20062;-64
2022/01/27 06:16:52;;;;;;;8.35;4.15;;;;;;;;;;4974535;28;20054;-65
2022/01/27 06:19:18;;;;;;;7.15;3.67;;;;;;;;;;4970620;28;20027;-64
2022/01/27 06:21:45;;;;;;;12.35;3.70;;;;;;;;;;4972108;28;20042;-64
2022/01/27 06:24:11;;;;;;;9.05;4.22;;;;;;;;;;4974883;28;20030;-65
2022/01/27 06:26:37;;;;;;;9.88;3.90;;;;;;;;;;4974608;28;20429;-65
2022/01/27 06:29:03;;;;;;;9.82;3.80;;;;;;;;;;4974778;28;20466;-65
2022/01/27 06:31:29;;;;;;;10.20;4.13;;;;;;;;;;4974460;28;20105;-66
2022/01/27 06:33:55;;;;;;;6.50;3.05;;;;;;;;;;4957323;28;20134;-64
2022/01/27 06:36:21;;;;;;;10.98;3.80;;;;;;;;;;4956434;28;20035;-64
2022/01/27 06:38:48;;;;;;;9.02;3.78;;;;;;;;;;4974406;28;20105;-66
2022/01/27 06:41:14;;;;;;;8.60;3.80;;;;;;;;;;4974585;28;20089;-65
2022/01/27 06:43:40;;;;;;;9.95;3.55;;;;;;;;;;4974761;28;20027;-65
2022/01/27 06:46:06;;;;;;;9.35;3.75;;;;;;;;;;4974460;28;20089;-64
2022/01/27 06:48:32;;;;;;;11.15;3.67;;;;;;;;;;4957040;28;20443;-64
2022/01/27 06:51:00;;;;;;;9.15;3.95;;;;;;;;;;4973185;28;20031;-65
2022/01/27 06:53:26;;;;;;;7.18;3.65;;;;;;;;;;4973201;28;20023;-65
2022/01/27 06:55:54;;;;;;;8.05;3.35;;;;;;;;;;4974308;28;20022;-64
2022/01/27 06:58:20;;;;;;;10.70;3.65;;;;;;;;;;4974061;28;20418;-62
2022/01/27 07:00:46;;;;;;;9.23;4.00;;;;;;;;;;4956078;28;20703;-62
2022/01/27 07:03:12;;;;;;;13.75;4.60;;;;;;;;;;4973958;28;20027;-63
2022/01/27 07:05:39;;;;;;;9.43;3.90;;;;;;;;;;4974300;28;20100;-63
2022/01/27 07:08:05;;;;;;;11.88;4.65;;;;;;;;;;4971158;28;20027;-63
2022/01/27 07:10:31;;;;;;;15.70;4.72;;;;;;;;;;4973957;28;20043;-62
2022/01/27 07:12:57;;;;;;;12.63;4.20;;;;;;;;;;4973790;28;20027;-63
2022/01/27 07:15:23;;;;;;;12.52;4.40;;;;;;;;;;4973873;28;20359;-63
2022/01/27 07:17:50;;;;;;;11.65;4.35;;;;;;;;;;4973611;28;20054;-63
2022/01/27 07:20:17;;;;;;;13.07;4.30;;;;;;;;;;4973964;28;20038;-63
2022/01/27 07:22:43;;;;;;;14.05;4.55;;;;;;;;;;4971138;28;20077;-64
2022/01/27 07:25:10;;;;;;;28.02;4.88;;;;;;;;;;4973934;28;20030;-68
2022/01/27 07:27:36;;;;;;;28.17;4.85;;;;;;;;;;4971728;28;20688;-62
2022/01/27 07:30:03;;;;;;;18.98;4.95;;;;;;;;;;4966995;28;20121;-65
2022/01/27 07:32:29;;;;;;;14.00;4.13;;;;;;;;;;4974063;28;20031;-65
2022/01/27 07:34:55;;;;;;;14.32;4.85;;;;;;;;;;4956494;28;20066;-65
2022/01/27 07:37:21;;;;;;;16.45;4.60;;;;;;;;;;4956360;28;20601;-67
2022/01/27 07:39:47;;;;;;;16.40;4.50;;;;;;;;;;4985983;28;20038;-64
2022/01/27 07:42:13;;;;;;;17.67;4.50;;;;;;;;;;4953983;28;20034;-65
2022/01/27 07:44:39;;;;;;;17.27;4.15;;;;;;;;;;4959673;28;20376;-65
2022/01/27 07:47:05;;;;;;;16.52;4.00;;;;;;;;;;4954645;28;20789;-65
2022/01/27 07:49:31;;;;;;;14.77;3.97;;;;;;;;;;4954703;28;20030;-65
2022/01/27 07:51:58;;;;;;;19.25;4.35;;;;;;;;;;4954045;29;20027;-66
2022/01/27 07:54:23;;;;;;;13.10;4.38;;;;;;;;;;4954236;28;20023;-65
2022/01/27 07:56:49;;;;;;;16.58;4.40;;;;;;;;;;4966219;28;20142;-65
2022/01/27 07:59:15;;;;;;;11.57;3.88;;;;;;;;;;4972648;28;20039;-66
2022/01/27 08:01:42;;;;;;;20.83;4.63;;;;;;;;;;4973057;28;20126;-65
2022/01/27 08:04:08;;;;;;;19.33;4.90;;;;;;;;;;4974059;28;20073;-65
2022/01/27 08:06:34;;;;;;;20.98;5.18;;;;;;;;;;4977257;28;20445;-66
2022/01/27 08:09:00;;;;;;;18.92;4.85;;;;;;;;;;4977167;28;20102;-66
2022/01/27 08:11:26;;;;;;;15.25;4.80;;;;;;;;;;4977096;28;20117;-65
2022/01/27 08:13:52;;;;;;;20.15;5.32;;;;;;;;;;4970272;28;20023;-65
2022/01/27 08:16:18;;;;;;;19.92;4.50;;;;;;;;;;4972147;28;20062;-67
2022/01/27 08:18:44;;;;;;;23.25;5.55;;;;;;;;;;4977051;28;20443;-68
2022/01/27 08:21:10;;;;;;;18.45;5.38;;;;;;;;;;4959588;28;20509;-67
2022/01/27 08:23:38;;;;;;;14.10;4.82;;;;;;;;;;4975712;28;20611;-68
2022/01/27 08:26:10;;;;;;;23.92;5.60;;;;;;;;;;4976233;28;20037;-65
2022/01/27 08:28:48;;;;;;;19.10;5.25;;;;;;;;;;4957309;28;20026;-65
2022/01/27 08:31:14;;;;;;;17.33;5.13;;;;;;;;;;4970726;28;20100;-68
2022/01/27 08:33:41;;;;;;;21.48;5.53;;;;;;;;;;4974238;28;20031;-66
2022/01/27 08:36:07;;;;;;;19.05;5.68;;;;;;;;;;4972463;28;20031;-66
2022/01/27 08:38:36;;;;;;;15.60;4.97;;;;;;;;;;4974934;28;20664;-66
2022/01/27 08:41:02;;;;;;;18.80;5.30;;;;;;;;;;4975360;28;20129;-66
2022/01/27 08:43:28;;;;;;;18.80;5.57;;;;;;;;;;4959143;28;20031;-66
2022/01/27 08:45:54;;;;;;;16.85;4.75;;;;;;;;;;4976236;28;20035;-66
2022/01/27 08:48:21;;;;;;;20.75;4.93;;;;;;;;;;4946386;28;20032;-66
2022/01/27 08:50:58;;;;;;;17.23;5.55;;;;;;;;;;4939937;29;20031;-68
2022/01/27 08:53:25;;;;;;;14.95;5.05;;;;;;;;;;4956824;28;20028;-66
2022/01/27 08:55:51;;;;;;;19.15;5.32;;;;;;;;;;4965439;28;20027;-66
2022/01/27 08:58:17;;;;;;;17.23;5.40;;;;;;;;;;4976029;28;20072;-65
2022/01/27 09:00:43;;;;;;;16.20;5.25;;;;;;;;;;4975982;28;20110;-66
2022/01/27 09:03:09;;;;;;;13.43;4.88;;;;;;;;;;4975771;28;20122;-66
2022/01/27 09:05:35;;;;;;;15.63;5.05;;;;;;;;;;4976090;28;20031;-66
2022/01/27 09:08:02;;;;;;;13.43;4.95;;;;;;;;;;4975704;28;20077;-65
2022/01/27 09:10:31;;;;;;;13.43;5.50;;;;;;;;;;4975889;28;20027;-65
2022/01/27 09:12:58;;;;;;;16.05;4.60;;;;;;;;;;4957820;28;20494;-67
2022/01/27 09:15:24;;;;;;;17.27;5.28;;;;;;;;;;4974742;28;20038;-65
2022/01/27 09:17:50;;;;;;;20.15;5.30;;;;;;;;;;4975082;28;20061;-65
2022/01/27 09:20:16;;;;;;;14.10;4.50;;;;;;;;;;4975634;28;20035;-65
2022/01/27 09:22:42;;;;;;;16.70;4.32;;;;;;;;;;4975258;28;20482;-65
2022/01/27 09:25:44;;;;;;;23.10;4.63;;;;;;;;;;4975530;28;20054;-66
2022/01/27 09:28:03;;;;;;;12.73;4.47;;;;;;;;;;4973780;28;20037;-68
2022/01/27 09:30:28;;;;;;;12.07;4.75;;;;;;;;;;4975345;28;20030;-67
2022/01/27 09:32:56;;;;;;;12.07;4.32;;;;;;;;;;4975135;28;20430;-67
2022/01/27 09:35:22;;;;;;;16.50;4.70;;;;;;;;;;4980267;28;20026;-65
2022/01/27 09:37:48;;;;;;;18.48;4.53;;;;;;;;;;4994760;28;20030;-65
2022/01/27 09:40:15;;;;;;;15.73;4.35;;;;;;;;;;4994490;28;20034;-64
2022/01/27 09:42:42;;;;;;;19.13;4.50;;;;;;;;;;4994581;28;20045;-63
2022/01/27 09:45:09;;;;;;;13.63;4.20;;;;;;;;;;4981222;28;20165;-64
2022/01/27 09:47:36;;;;;;;22.52;4.55;;;;;;;;;;4974986;28;20034;-65
2022/01/27 09:50:48;;;;;;;14.75;4.57;;;;;;;;;;4957703;28;20217;-65
2022/01/27 09:52:55;;;;;;;;;;;;;;;;;;4973236;28;20102;-64
2022/01/27 09:55:21;;;;;;;20.63;4.90;;;;;;;;;;4979752;28;19988;-65
2022/01/27 09:57:47;;;;;;;11.55;4.50;;;;;;;;;;4994456;28;20030;-64
2022/01/27 10:00:14;;;;;;;21.48;4.57;;;;;;;;;;4994262;28;20042;-65
2022/01/27 10:02:40;;;;;;;8.98;3.63;;;;;;;;;;4976674;28;20100;-64
2022/01/27 10:05:08;;;;;;;14.05;3.97;;;;;;;;;;4994441;28;20037;-67
2022/01/27 10:07:40;;;;;;;13.57;4.38;;;;;;;;;;4994536;28;20022;-68
2022/01/27 10:10:06;;;;;;;17.52;4.18;;;;;;;;;;4993993;28;20038;-64
2022/01/27 10:12:42;;;;;;;17.25;4.32;;;;;;;;;;4990244;28;20042;-65
2022/01/27 10:15:10;;;;;;;15.38;3.88;;;;;;;;;;4957491;28;20028;-65
2022/01/27 10:17:39;;;;;;;12.77;4.00;;;;;;;;;;4966170;28;20050;-64
2022/01/27 10:20:18;;;;;;;14.55;3.90;;;;;;;;;;4957202;28;20047;-65
2022/01/27 10:23:04;;;;;;;15.77;3.72;;;;;;;;;;4974463;28;20019;-65
2022/01/27 10:25:34;;;;;;;15.48;3.63;;;;;;;;;;4969283;28;20032;-64
2022/01/27 10:28:10;;;;;;;12.18;3.78;;;;;;;;;;4974579;28;20027;-64
2022/01/27 10:30:37;;;;;;;14.50;4.18;;;;;;;;;;4974515;28;20035;-64
2022/01/27 10:33:05;;;;;;;15.48;3.95;;;;;;;;;;4973955;28;20058;-64
2022/01/27 10:35:32;;;;;;;13.40;4.32;;;;;;;;;;4974722;28;20078;-64
2022/01/27 10:38:02;;;;;;;10.57;3.42;;;;;;;;;;4957080;28;20046;-65
2022/01/27 10:40:31;;;;;;;13.98;3.95;;;;;;;;;;4975147;28;20343;-65
2022/01/27 10:43:07;;;;;;;15.38;3.80;;;;;;;;;;4960718;28;20078;-63
2022/01/27 10:45:34;;;;;;;7.53;2.97;;;;;;;;;;4974393;28;20035;-67
2022/01/27 10:48:12;;;;;;;25.00;3.42;;;;;;;;;;4974331;28;20046;-66
2022/01/27 10:50:50;;;;;;;8.13;3.35;;;;;;;;;;4974554;28;20066;-66
2022/01/27 10:53:18;;;;;;;9.27;3.03;;;;;;;;;;4974401;28;20026;-64
2022/01/27 10:55:45;;;;;;;16.88;3.28;;;;;;;;;;4974233;28;20069;-64
2022/01/27 10:58:24;;;;;;;11.05;3.40;;;;;;;;;;4978880;28;20030;-63
2022/01/27 11:00:57;;;;;;;11.18;3.13;;;;;;;;;;4979401;28;20026;-64
2022/01/27 11:03:23;;;;;;;11.73;3.17;;;;;;;;;;4961652;28;20034;-64
2022/01/27 11:05:50;;;;;;;16.88;3.50;;;;;;;;;;4970699;28;20030;-66
2022/01/27 11:08:19;;;;;;;14.88;3.25;;;;;;;;;;4971137;28;20019;-63
2022/01/27 11:10:48;;;;;;;11.85;3.30;;;;;;;;;;4970917;28;20053;-63
2022/01/27 11:13:16;;;;;;;15.63;3.60;;;;;;;;;;4971057;28;20034;-67
2022/01/27 11:15:42;;;;;;;13.60;2.67;;;;;;;;;;4960737;28;20030;-63
2022/01/27 11:18:09;;;;;;;12.85;2.65;;;;;;;;;;4970976;28;20159;-66
2022/01/27 11:21:01;;;;;;;15.85;2.85;;;;;;;;;;4971862;28;20121;-63
2022/01/27 11:26:07;;;;;;;12.75;3.13;;;;;;;;;;4970085;28;20162;-64
2022/01/27 11:28:35;;;;;;;13.70;2.58;;;;;;;;;;4971256;28;20104;-65
2022/01/27 11:31:09;;;;;;;19.50;2.88;;;;;;;;;;4970427;28;20065;-65
2022/01/27 11:33:36;;;;;;;17.63;2.47;;;;;;;;;;4970569;28;20031;-65
2022/01/27 11:36:06;;;;;;;15.23;2.63;;;;;;;;;;4971296;28;20015;-65
2022/01/27 11:38:32;;;;;;;25.08;3.05;;;;;;;;;;4970231;28;20419;-65
2022/01/27 11:40:58;;;;;;;13.82;2.45;;;;;;;;;;4961037;28;20662;-66
2022/01/27 11:43:34;;;;;;;10.25;2.25;;;;;;;;;;4960290;28;20035;-65
2022/01/27 11:46:19;;;;;;;25.40;2.63;;;;;;;;;;4970937;28;20026;-66
2022/01/27 11:48:45;;;;;;;15.20;2.33;;;;;;;;;;4970497;28;20429;-65
2022/01/27 11:51:15;;;;;;;7.90;2.25;;;;;;;;;;4970949;28;20478;-66
2022/01/27 11:53:43;;;;;;;15.38;2.38;;;;;;;;;;4970740;28;20019;-66
2022/01/27 11:56:26;;;;;;;13.00;2.47;;;;;;;;;;4970068;28;20035;-63
2022/01/27 11:58:53;;;;;;;11.35;2.50;;;;;;;;;;4969633;28;20023;-63
2022/01/27 12:01:19;;;;;;;16.85;2.38;;;;;;;;;;4959471;28;20043;-63
2022/01/27 12:04:11;;;;;;;10.85;2.55;;;;;;;;;;4970554;28;20474;-64
2022/01/27 12:07:03;;;;;;;8.13;2.20;;;;;;;;;;4970016;28;20390;-63
2022/01/27 12:09:30;;;;;;;17.52;2.50;;;;;;;;;;4970176;28;20051;-64
2022/01/27 12:12:02;;;;;;;10.45;2.45;;;;;;;;;;4960195;28;20069;-63
2022/01/27 12:14:34;;;;;;;13.13;2.30;;;;;;;;;;4971105;28;20538;-64
2022/01/27 12:17:10;;;;;;;10.50;2.33;;;;;;;;;;4962002;28;20090;-64
2022/01/27 12:19:55;;;;;;;10.45;2.58;;;;;;;;;;4970108;28;20029;-63
2022/01/27 12:22:24;;;;;;;7.00;2.53;;;;;;;;;;4970041;28;20046;-64
2022/01/27 12:24:51;;;;;;;8.45;2.03;;;;;;;;;;4969958;28;20466;-64
2022/01/27 12:27:18;;;;;;;7.57;2.35;;;;;;;;;;4961711;28;20042;-64
2022/01/27 12:29:48;;;;;;;10.95;2.75;;;;;;;;;;4970315;28;20066;-64
2022/01/27 12:32:17;;;;;;;6.57;2.20;;;;;;;;;;4969984;28;20487;-63
2022/01/27 12:34:48;;;;;;;8.52;2.42;;;;;;;;;;4966978;28;20035;-64
2022/01/27 12:37:14;;;;;;;11.07;2.03;;;;;;;;;;4969995;28;20035;-64
2022/01/27 12:39:45;;;;;;;9.48;1.90;;;;;;;;;;4970674;28;20093;-62
2022/01/27 12:42:13;;;;;;;11.18;2.63;;;;;;;;;;4970452;28;20042;-64
2022/01/27 12:44:42;;;;;;;15.23;2.50;;;;;;;;;;4969729;28;20137;-64
2022/01/27 12:47:16;;;;;;;6.72;1.90;;;;;;;;;;4969984;28;20177;-64
2022/01/27 12:49:46;;;;;;;16.60;2.47;;;;;;;;;;4969393;28;20027;-64
2022/01/27 12:52:27;;;;;;;11.50;2.15;;;;;;;;;;4973050;28;20057;-64
2022/01/27 12:54:53;;;;;;;5.55;1.92;;;;;;;;;;4973369;28;20121;-67
2022/01/27 12:57:26;;;;;;;8.80;2.30;;;;;;;;;;4964449;28;20153;-66
2022/01/27 12:59:53;;;;;;;14.57;2.35;;;;;;;;;;4963021;28;20035;-67
2022/01/27 13:02:20;;;;;;;6.75;2.13;;;;;;;;;;4955558;28;20035;-67
2022/01/27 13:04:46;;;;;;;18.15;2.47;;;;;;;;;;4973297;28;20051;-66
2022/01/27 13:07:12;;;;;;;14.40;1.95;;;;;;;;;;4973656;28;20030;-67
2022/01/27 13:09:39;;;;;;;11.77;2.05;;;;;;;;;;4973617;28;20031;-67
2022/01/27 13:12:15;;;;;;;10.80;2.42;;;;;;;;;;4972935;28;20038;-67
2022/01/27 13:15:06;;;;;;;11.93;1.88;;;;;;;;;;4971639;28;20050;-65
2022/01/27 13:17:37;;;;;;;17.45;2.40;;;;;;;;;;4973447;28;20051;-68
2022/01/27 13:20:10;;;;;;;11.80;2.35;;;;;;;;;;4973115;28;20148;-70
2022/01/27 13:22:47;;;;;;;10.40;2.28;;;;;;;;;;4962295;28;20154;-68
2022/01/27 13:25:15;;;;;;;11.30;1.98;;;;;;;;;;4971819;28;20017;-67
2022/01/27 13:27:42;;;;;;;20.52;2.33;;;;;;;;;;4973429;28;20542;-66
2022/01/27 13:30:08;;;;;;;15.60;2.25;;;;;;;;;;4958269;28;20101;-66
2022/01/27 13:32:34;;;;;;;9.27;2.38;;;;;;;;;;4975258;28;20023;-61
2022/01/27 13:35:00;;;;;;;13.32;2.17;;;;;;;;;;4975544;28;20027;-62
2022/01/27 13:37:27;;;;;;;16.55;2.17;;;;;;;;;;4975585;28;20084;-61
2022/01/27 13:42:20;;;;;;;22.63;2.50;;;;;;;;;;4975287;28;20123;-62
2022/01/27 13:44:53;;;;;;;8.52;2.40;;;;;;;;;;4975333;28;20019;-62
2022/01/27 13:47:24;;;;;;;9.10;2.30;;;;;;;;;;4973874;28;20487;-61
2022/01/27 13:49:51;;;;;;;9.73;1.98;;;;;;;;;;4974144;28;20027;-62
2022/01/27 13:52:18;;;;;;;13.40;2.28;;;;;;;;;;4973844;28;20037;-61
2022/01/27 13:54:50;;;;;;;7.72;1.90;;;;;;;;;;4977715;28;20034;-61
2022/01/27 13:57:23;;;;;;;8.02;2.22;;;;;;;;;;4980449;28;20118;-61
2022/01/27 14:00:09;;;;;;;6.55;2.13;;;;;;;;;;4993515;28;20026;-63
2022/01/27 14:02:38;;;;;;;9.10;2.03;;;;;;;;;;4993859;28;20031;-62
2022/01/27 14:05:14;;;;;;;19.15;2.00;;;;;;;;;;4994297;28;20022;-61
2022/01/27 14:08:00;;;;;;;10.68;2.25;;;;;;;;;;4975104;28;20034;-61
2022/01/27 14:10:29;;;;;;;10.02;1.40;;;;;;;;;;4965780;28;20098;-63
2022/01/27 14:13:04;;;;;;;9.77;1.50;;;;;;;;;;4977145;28;20023;-62
2022/01/27 14:15:34;;;;;;;12.68;1.88;;;;;;;;;;4982985;28;20030;-63
2022/01/27 14:18:08;;;;;;;12.93;1.92;;;;;;;;;;4980306;28;20047;-61
2022/01/27 14:20:34;;;;;;;12.57;1.60;;;;;;;;;;4980136;28;20113;-61
2022/01/27 14:23:20;;;;;;;8.32;2.15;;;;;;;;;;4984759;28;20022;-60
2022/01/27 14:25:55;;;;;;;10.98;1.83;;;;;;;;;;4967216;28;20110;-60
2022/01/27 14:28:22;;;;;;;10.30;1.70;;;;;;;;;;4981921;28;20049;-63
2022/01/27 14:30:48;;;;;;;7.40;1.77;;;;;;;;;;4984661;28;20483;-62
2022/01/27 14:33:14;;;;;;;21.50;2.38;;;;;;;;;;4979709;28;20070;-61
2022/01/27 14:35:42;;;;;;;4.68;1.80;;;;;;;;;;4964414;28;20465;-62
2022/01/27 14:38:08;;;;;;;8.88;1.70;;;;;;;;;;4964313;28;20470;-63
2022/01/27 14:40:34;;;;;;;7.47;2.10;;;;;;;;;;4972577;28;20039;-61
2022/01/27 14:43:02;;;;;;;8.15;1.80;;;;;;;;;;4989469;28;20026;-60
2022/01/27 14:45:28;;;;;;;9.23;1.80;;;;;;;;;;4981889;28;20058;-61
2022/01/27 14:48:00;;;;;;;6.35;1.60;;;;;;;;;;4982842;28;20037;-61
2022/01/27 14:50:26;;;;;;;6.63;2.03;;;;;;;;;;4982988;28;20034;-61
2022/01/27 14:52:52;;;;;;;9.88;2.20;;;;;;;;;;4975425;28;20049;-60
2022/01/27 14:55:19;;;;;;;5.07;1.85;;;;;;;;;;4993228;28;20038;-61
2022/01/27 14:57:45;;;;;;;8.52;2.10;;;;;;;;;;4986692;28;20057;-60
2022/01/27 15:00:13;;;;;;;6.75;1.77;;;;;;;;;;4973739;28;20090;-61
2022/01/27 15:02:39;;;;;;;10.05;2.08;;;;;;;;;;4973849;28;20023;-61
2022/01/27 15:05:05;;;;;;;6.72;2.40;;;;;;;;;;4973760;28;20418;-60
2022/01/27 15:07:31;;;;;;;5.95;1.50;;;;;;;;;;4975113;28;20023;-60
2022/01/27 15:09:57;;;;;;;7.68;2.08;;;;;;;;;;4980035;28;20015;-60
2022/01/27 15:12:24;;;;;;;9.52;1.83;;;;;;;;;;4964064;28;20057;-62
2022/01/27 15:20:20;;;;;;;9.30;1.50;;;;;;;;;;4987267;28;20038;-60
2022/01/27 15:22:47;;;;;;;6.13;1.77;;;;;;;;;;4963198;28;20034;-61
2022/01/27 15:25:14;;;;;;;8.77;1.75;;;;;;;;;;4982520;28;20053;-60
2022/01/27 15:27:41;;;;;;;5.20;2.13;;;;;;;;;;4964761;28;20014;-61
2022/01/27 15:30:08;;;;;;;8.38;2.85;;;;;;;;;;4983204;28;20050;-62
2022/01/27 15:32:34;;;;;;;12.05;3.20;;;;;;;;;;4981900;28;20077;-60
2022/01/27 15:35:00;;;;;;;11.82;3.35;;;;;;;;;;4970749;28;20402;-61